Time;durP1;ratioP1;P1;durP2;ratioP2;P2;SDS_P1;SDS_P2;PMS_P1;PMS_P2;Temp;Humidity;BMP_temperature;BMP_pressure;BME280_temperature;BME280_humidity;BME280_pressure;Samples;Min_cycle;Max_cycle;Signal;HPM_P1;HPM_P2
2023/09/12 00:01:53;;;;;;;3.75;2.58;;;22.90;94.10;;;;;;4247004;27;20039;-54
2023/09/12 00:03:55;;;;;;;3.88;2.60;;;22.90;94.10;;;;;;4246742;27;20051;-54
2023/09/12 00:06:01;;;;;;;6.32;3.20;;;22.90;94.00;;;;;;4246897;27;20051;-54
2023/09/12 00:08:04;;;;;;;4.00;2.30;;;22.80;94.10;;;;;;4245994;27;20043;-54
2023/09/12 00:10:06;;;;;;;4.57;2.70;;;22.80;94.20;;;;;;4246929;27;20046;-55
2023/09/12 00:12:09;;;;;;;3.53;2.65;;;22.80;94.20;;;;;;4247073;27;20107;-53
2023/09/12 00:14:15;;;;;;;4.28;2.72;;;22.70;94.30;;;;;;4246615;27;20035;-55
2023/09/12 00:16:17;;;;;;;3.75;2.92;;;22.70;94.40;;;;;;4242598;27;20428;-54
2023/09/12 00:18:19;;;;;;;6.30;3.08;;;22.70;94.30;;;;;;4230401;28;20044;-54
2023/09/12 00:20:21;;;;;;;6.35;2.97;;;22.70;94.20;;;;;;4246305;28;20122;-54
2023/09/12 00:22:23;;;;;;;4.40;3.03;;;22.70;94.30;;;;;;4246854;28;20065;-54
2023/09/12 00:24:25;;;;;;;6.25;3.17;;;22.70;94.40;;;;;;4246549;28;20035;-54
2023/09/12 00:26:27;;;;;;;5.35;2.97;;;22.70;94.40;;;;;;4247434;28;20503;-54
2023/09/12 00:28:29;;;;;;;4.13;2.60;;;22.70;94.40;;;;;;4227850;28;20077;-53
2023/09/12 00:30:33;;;;;;;3.85;2.95;;;22.60;94.60;;;;;;4246411;28;20043;-54
2023/09/12 00:32:35;;;;;;;6.05;3.33;;;22.60;94.60;;;;;;4247226;28;20047;-55
2023/09/12 00:34:37;;;;;;;5.32;3.17;;;22.60;94.70;;;;;;4246534;28;20043;-54
2023/09/12 00:36:39;;;;;;;4.13;3.25;;;22.60;94.80;;;;;;4246864;28;20053;-55
2023/09/12 00:38:42;;;;;;;5.72;3.42;;;22.60;94.70;;;;;;4246175;28;20049;-55
2023/09/12 00:40:44;;;;;;;4.68;3.20;;;22.60;94.70;;;;;;4228440;28;20109;-55
2023/09/12 00:42:46;;;;;;;5.50;3.35;;;22.50;94.70;;;;;;4246016;28;20408;-54
2023/09/12 00:44:48;;;;;;;5.35;3.53;;;22.50;94.70;;;;;;4246496;28;20039;-54
2023/09/12 00:46:54;;;;;;;3.72;3.15;;;22.50;94.80;;;;;;4246781;28;20100;-54
2023/09/12 00:48:59;;;;;;;7.88;4.20;;;22.50;94.80;;;;;;4245278;28;20055;-55
2023/09/12 00:51:01;;;;;;;5.82;3.50;;;22.50;94.90;;;;;;4246706;28;20446;-54
2023/09/12 00:53:04;;;;;;;5.78;4.47;;;22.40;94.90;;;;;;4246721;28;20111;-58
2023/09/12 00:55:07;;;;;;;6.90;4.15;;;22.40;95.00;;;;;;4246596;28;20485;-54
2023/09/12 00:57:09;;;;;;;9.73;4.20;;;22.40;95.00;;;;;;4246028;28;20036;-58
2023/09/12 00:59:11;;;;;;;5.82;3.53;;;22.40;95.10;;;;;;4246433;28;20044;-54
2023/09/12 01:01:13;;;;;;;6.15;3.92;;;22.40;95.00;;;;;;4246513;28;20039;-55
2023/09/12 01:03:17;;;;;;;4.53;3.40;;;22.40;95.10;;;;;;4246201;28;20142;-54
2023/09/12 01:05:21;;;;;;;5.32;4.18;;;22.40;95.10;;;;;;4246725;28;20135;-54
2023/09/12 01:07:23;;;;;;;5.80;4.40;;;22.40;95.10;;;;;;4234482;28;20053;-54
2023/09/12 01:09:25;;;;;;;7.47;4.13;;;22.40;95.30;;;;;;4246766;28;20401;-54
2023/09/12 01:11:28;;;;;;;4.63;3.65;;;22.30;95.40;;;;;;4246721;27;20050;-54
2023/09/12 01:13:30;;;;;;;5.72;4.15;;;22.40;95.30;;;;;;4249700;27;20058;-55
2023/09/12 01:15:32;;;;;;;8.15;4.88;;;22.30;95.40;;;;;;4249663;27;20074;-55
2023/09/12 01:17:34;;;;;;;5.60;4.32;;;22.30;95.70;;;;;;4248311;27;20047;-54
2023/09/12 01:19:38;;;;;;;7.82;4.60;;;22.30;95.70;;;;;;4249607;27;20040;-54
2023/09/12 01:21:57;;;;;;;7.40;4.80;;;22.30;95.80;;;;;;4249657;27;20047;-54
2023/09/12 01:24:14;;;;;;;8.93;4.72;;;22.30;95.80;;;;;;4249607;27;20405;-55
2023/09/12 01:26:35;;;;;;;7.63;5.15;;;22.30;95.90;;;;;;4249197;27;20092;-54
2023/09/12 01:28:42;;;;;;;6.28;4.63;;;22.30;95.80;;;;;;4248269;27;20088;-54
2023/09/12 01:30:48;;;;;;;8.18;5.47;;;22.20;95.90;;;;;;4249331;27;20121;-55
2023/09/12 01:32:51;;;;;;;6.88;5.20;;;22.20;96.00;;;;;;4245582;27;20047;-54
2023/09/12 01:34:53;;;;;;;7.45;4.20;;;22.20;96.00;;;;;;4249529;27;20047;-53
2023/09/12 01:36:55;;;;;;;5.97;4.43;;;22.10;96.10;;;;;;4249253;27;20133;-54
2023/09/12 01:38:57;;;;;;;6.50;4.18;;;22.10;96.20;;;;;;4248022;27;20050;-54
2023/09/12 01:41:00;;;;;;;5.90;4.57;;;22.10;96.20;;;;;;4249096;27;20071;-63
2023/09/12 01:43:05;;;;;;;6.93;5.60;;;22.00;96.30;;;;;;4249141;27;20484;-55
2023/09/12 01:45:11;;;;;;;8.20;5.03;;;22.10;96.30;;;;;;4249392;27;20050;-54
2023/09/12 01:47:14;;;;;;;7.20;4.45;;;22.10;96.40;;;;;;4230142;28;20448;-55
2023/09/12 01:49:19;;;;;;;6.70;4.40;;;22.00;96.40;;;;;;4248573;27;20082;-54
2023/09/12 01:51:22;;;;;;;;;;;22.00;96.40;;;;;;4249792;27;20050;-54
2023/09/12 01:53:25;;;;;;;9.63;5.38;;;22.00;96.60;;;;;;4248879;27;19943;-54
2023/09/12 01:55:27;;;;;;;7.90;4.55;;;21.90;96.70;;;;;;4249157;27;20047;-54
2023/09/12 01:57:30;;;;;;;6.25;4.45;;;21.90;96.60;;;;;;4247880;27;20035;-54
2023/09/12 01:59:32;;;;;;;7.88;4.65;;;21.90;96.50;;;;;;4230717;28;20051;-53
2023/09/12 02:01:36;;;;;;;9.70;4.90;;;21.90;96.50;;;;;;4231918;28;20447;-55
2023/09/12 02:03:38;;;;;;;5.65;5.05;;;21.80;96.60;;;;;;4248688;27;20043;-55
2023/09/12 02:05:40;;;;;;;8.18;6.22;;;21.80;96.50;;;;;;4230662;28;20151;-55
2023/09/12 02:07:42;;;;;;;9.00;5.97;;;21.80;96.70;;;;;;4247844;27;20054;-55
2023/09/12 02:09:45;;;;;;;12.60;7.25;;;21.80;96.80;;;;;;4248490;27;20078;-54
2023/09/12 02:11:48;;;;;;;9.80;6.18;;;21.70;97.00;;;;;;4249074;27;20456;-54
2023/09/12 02:13:50;;;;;;;9.80;6.13;;;21.70;97.10;;;;;;4248542;27;20100;-54
2023/09/12 02:15:58;;;;;;;8.68;6.45;;;21.60;97.30;;;;;;4247539;27;20050;-53
2023/09/12 02:18:03;;;;;;;8.82;6.47;;;21.60;97.40;;;;;;4238324;27;20154;-54
2023/09/12 02:20:07;;;;;;;10.75;6.45;;;21.50;97.50;;;;;;4248426;27;20122;-55
2023/09/12 02:22:09;;;;;;;9.75;7.15;;;21.50;97.60;;;;;;4248907;27;20085;-55
2023/09/12 02:24:11;;;;;;;8.75;5.80;;;21.50;97.60;;;;;;4247684;27;20055;-54
2023/09/12 02:26:13;;;;;;;8.75;6.55;;;21.50;97.60;;;;;;4248705;27;20450;-53
2023/09/12 02:28:15;;;;;;;11.18;8.20;;;21.50;97.80;;;;;;4247557;27;20072;-54
2023/09/12 02:30:18;;;;;;;11.32;8.77;;;21.40;97.90;;;;;;4248323;27;20447;-54
2023/09/12 02:32:21;;;;;;;12.43;7.88;;;21.40;98.00;;;;;;4248651;27;20047;-54
2023/09/12 02:34:24;;;;;;;16.58;8.48;;;21.30;98.10;;;;;;4248335;27;20049;-55
2023/09/12 02:36:28;;;;;;;12.23;9.23;;;21.30;98.20;;;;;;4248570;27;20053;-57
2023/09/12 02:38:30;;;;;;;13.35;8.05;;;21.30;98.20;;;;;;4248063;27;20066;-54
2023/09/12 02:40:32;;;;;;;13.73;8.45;;;21.30;98.30;;;;;;4248984;27;20055;-62
2023/09/12 02:42:34;;;;;;;12.63;7.75;;;21.30;98.30;;;;;;4249054;27;20545;-54
2023/09/12 02:44:36;;;;;;;11.63;7.50;;;21.20;98.40;;;;;;4247745;27;20043;-55
2023/09/12 02:46:38;;;;;;;10.00;7.53;;;21.20;98.60;;;;;;4248545;27;20396;-54
2023/09/12 02:48:40;;;;;;;12.05;8.05;;;21.20;98.60;;;;;;4246869;27;20488;-55
2023/09/12 02:50:45;;;;;;;13.65;8.35;;;21.20;98.50;;;;;;4248093;27;20043;-54
2023/09/12 02:52:47;;;;;;;12.73;8.80;;;21.20;98.60;;;;;;4248046;27;20076;-54
2023/09/12 02:54:49;;;;;;;10.57;9.02;;;21.20;98.60;;;;;;4247957;27;20827;-55
2023/09/12 02:56:51;;;;;;;13.43;9.10;;;21.20;99.00;;;;;;4229939;28;20424;-54
2023/09/12 02:58:53;;;;;;;13.80;9.05;;;21.20;98.80;;;;;;4233401;27;20052;-54
2023/09/12 03:00:55;;;;;;;14.32;9.27;;;21.10;99.00;;;;;;4247583;27;20043;-54
2023/09/12 03:02:57;;;;;;;13.45;9.40;;;21.10;99.00;;;;;;4248166;27;20047;-53
2023/09/12 03:05:01;;;;;;;12.95;8.68;;;21.10;99.00;;;;;;4247848;27;20070;-53
2023/09/12 03:07:05;;;;;;;13.23;8.25;;;21.20;99.00;;;;;;4248115;27;20054;-55
2023/09/12 03:09:07;;;;;;;13.38;10.05;;;21.10;99.00;;;;;;4247191;27;20047;-55
2023/09/12 03:11:10;;;;;;;12.98;8.63;;;21.10;99.10;;;;;;4230311;28;20497;-53
2023/09/12 03:13:12;;;;;;;14.15;9.95;;;21.00;99.20;;;;;;4231400;28;20123;-56
2023/09/12 03:15:15;;;;;;;18.02;10.23;;;21.00;99.40;;;;;;4241157;27;20479;-63
2023/09/12 03:17:17;;;;;;;13.18;8.85;;;20.90;99.50;;;;;;4245859;27;20043;-56
2023/09/12 03:19:19;;;;;;;13.80;10.15;;;20.90;99.50;;;;;;4246769;27;20047;-54
2023/09/12 03:21:21;;;;;;;18.92;11.98;;;20.90;99.60;;;;;;4247580;27;20096;-54
2023/09/12 03:23:24;;;;;;;13.30;10.73;;;20.80;99.70;;;;;;4247917;27;20053;-56
2023/09/12 03:25:27;;;;;;;16.88;11.98;;;20.80;99.70;;;;;;4247611;27;20114;-55
2023/09/12 03:27:29;;;;;;;15.60;11.35;;;20.80;99.90;;;;;;4247717;27;20077;-55
2023/09/12 03:29:31;;;;;;;13.15;10.13;;;20.70;99.90;;;;;;4246299;27;20054;-54
2023/09/12 03:31:35;;;;;;;12.73;9.95;;;20.70;99.90;;;;;;4247147;27;20103;-54
2023/09/12 03:33:37;;;;;;;13.80;11.07;;;20.80;99.90;;;;;;4247581;27;20400;-55
2023/09/12 03:35:39;;;;;;;12.75;8.90;;;20.80;99.90;;;;;;4247479;27;20111;-53
2023/09/12 03:37:42;;;;;;;13.52;9.35;;;20.80;99.90;;;;;;4246852;27;20057;-55
2023/09/12 03:39:46;;;;;;;19.23;11.68;;;20.90;99.80;;;;;;4247313;27;20085;-54
2023/09/12 03:41:48;;;;;;;18.33;11.18;;;20.90;99.70;;;;;;4247422;27;20054;-53
2023/09/12 03:43:50;;;;;;;17.60;11.05;;;20.90;99.80;;;;;;4246902;27;20126;-54
2023/09/12 03:45:53;;;;;;;12.70;10.30;;;20.80;99.80;;;;;;4247286;27;20417;-55
2023/09/12 03:47:55;;;;;;;14.55;10.57;;;20.80;99.80;;;;;;4246474;27;20169;-54
2023/09/12 03:49:57;;;;;;;13.25;11.18;;;20.90;99.80;;;;;;4247322;27;20076;-54
2023/09/12 03:51:59;;;;;;;15.30;11.68;;;20.90;99.70;;;;;;4247230;27;20483;-54
2023/09/12 03:54:02;;;;;;;15.55;11.50;;;20.90;99.70;;;;;;4247418;27;20051;-54
2023/09/12 03:56:06;;;;;;;13.48;10.93;;;20.90;99.80;;;;;;4247298;27;20426;-54
2023/09/12 03:58:08;;;;;;;17.58;12.48;;;20.90;99.70;;;;;;4246043;27;20129;-55
2023/09/12 04:00:11;;;;;;;12.57;10.63;;;20.90;99.70;;;;;;4247191;27;20058;-54
2023/09/12 04:02:14;;;;;;;17.30;12.13;;;20.80;99.60;;;;;;4247025;27;20108;-55
2023/09/12 04:04:16;;;;;;;13.10;10.65;;;20.80;99.70;;;;;;4247175;27;20092;-54
2023/09/12 04:06:18;;;;;;;18.17;10.70;;;20.80;99.80;;;;;;4246870;27;20043;-55
2023/09/12 04:08:20;;;;;;;12.98;10.32;;;20.80;99.70;;;;;;4246171;27;20118;-54
2023/09/12 04:10:23;;;;;;;20.05;11.73;;;20.80;99.50;;;;;;4247223;27;20480;-54
2023/09/12 04:12:26;;;;;;;13.85;9.10;;;20.90;99.60;;;;;;4246579;27;20039;-55
2023/09/12 04:14:28;;;;;;;13.15;9.68;;;20.90;99.50;;;;;;4247241;27;20043;-55
2023/09/12 04:16:30;;;;;;;12.63;9.02;;;20.90;99.50;;;;;;4246751;27;20126;-55
2023/09/12 04:18:33;;;;;;;15.77;12.32;;;20.90;99.50;;;;;;4245979;28;20047;-54
2023/09/12 04:20:35;;;;;;;15.02;9.15;;;20.90;99.50;;;;;;4247150;28;20502;-54
2023/09/12 04:22:37;;;;;;;13.48;9.68;;;20.90;99.50;;;;;;4247582;28;20071;-56
2023/09/12 04:24:39;;;;;;;15.77;10.77;;;20.90;99.50;;;;;;4248150;28;20091;-54
2023/09/12 04:26:41;;;;;;;12.48;9.93;;;20.90;99.50;;;;;;4247405;28;20372;-55
2023/09/12 04:28:46;;;;;;;20.23;13.07;;;20.90;99.50;;;;;;4246341;28;20404;-55
2023/09/12 04:30:48;;;;;;;18.95;12.50;;;21.00;99.30;;;;;;4247240;28;20051;-55
2023/09/12 04:32:51;;;;;;;12.43;9.95;;;21.00;99.30;;;;;;4246746;28;20039;-54
2023/09/12 04:34:53;;;;;;;11.77;10.02;;;21.00;99.40;;;;;;4246980;28;20035;-54
2023/09/12 04:36:55;;;;;;;15.55;10.80;;;21.00;99.30;;;;;;4247135;28;20043;-55
2023/09/12 04:38:57;;;;;;;15.98;11.73;;;21.00;99.40;;;;;;4246135;28;20446;-54
2023/09/12 04:41:04;;;;;;;15.60;12.35;;;20.90;99.50;;;;;;4247051;28;20044;-54
2023/09/12 04:43:06;;;;;;;17.73;11.57;;;20.90;99.40;;;;;;4246625;28;20039;-54
2023/09/12 04:45:10;;;;;;;14.48;10.65;;;20.90;99.50;;;;;;4246683;28;20449;-54
2023/09/12 04:47:13;;;;;;;13.57;10.13;;;21.00;99.40;;;;;;4248479;27;20541;-55
2023/09/12 04:49:15;;;;;;;15.88;10.27;;;20.90;99.40;;;;;;4248889;27;20104;-53
2023/09/12 04:51:17;;;;;;;16.25;9.85;;;20.90;99.40;;;;;;4250336;27;20050;-54
2023/09/12 04:53:19;;;;;;;14.05;10.20;;;21.00;99.40;;;;;;4249938;27;20043;-55
2023/09/12 04:55:21;;;;;;;17.02;11.27;;;21.00;99.30;;;;;;4231243;28;20072;-54
2023/09/12 04:57:23;;;;;;;13.52;10.75;;;21.00;99.40;;;;;;4233403;28;20067;-54
2023/09/12 04:59:26;;;;;;;13.77;11.48;;;21.00;99.30;;;;;;4230235;28;20050;-53
2023/09/12 05:01:29;;;;;;;17.65;10.20;;;21.00;99.20;;;;;;4250205;27;20082;-54
2023/09/12 05:03:33;;;;;;;18.38;11.00;;;21.00;99.20;;;;;;4249707;27;20122;-54
2023/09/12 05:05:38;;;;;;;15.05;10.90;;;21.00;99.30;;;;;;4249878;27;20047;-55
2023/09/12 05:07:40;;;;;;;12.75;9.40;;;20.90;99.40;;;;;;4249941;27;20047;-55
2023/09/12 05:09:42;;;;;;;15.30;10.52;;;20.90;99.40;;;;;;4248178;27;20470;-55
2023/09/12 05:11:44;;;;;;;14.77;11.48;;;20.90;99.30;;;;;;4249858;27;20404;-54
2023/09/12 05:13:47;;;;;;;11.73;10.40;;;20.90;99.20;;;;;;4249457;27;20054;-54
2023/09/12 05:15:49;;;;;;;18.33;15.40;;;20.90;99.20;;;;;;4249525;27;20081;-54
2023/09/12 05:17:52;;;;;;;22.08;15.65;;;20.90;99.20;;;;;;4249805;27;20091;-54
2023/09/12 05:19:54;;;;;;;21.52;17.15;;;20.80;99.30;;;;;;4248702;27;20049;-54
2023/09/12 05:21:56;;;;;;;15.65;11.95;;;20.90;99.20;;;;;;4231302;28;20066;-54
2023/09/12 05:23:58;;;;;;;24.98;16.08;;;20.90;99.20;;;;;;4238123;27;20118;-54
2023/09/12 05:26:01;;;;;;;22.38;16.45;;;20.90;99.20;;;;;;4249776;27;20043;-55
2023/09/12 05:28:04;;;;;;;16.42;14.63;;;20.90;99.30;;;;;;4248842;27;20051;-55
2023/09/12 05:30:07;;;;;;;18.85;12.10;;;20.80;99.40;;;;;;4249254;27;20428;-54
2023/09/12 05:32:09;;;;;;;16.80;13.73;;;20.90;99.40;;;;;;4249764;27;20420;-55
2023/09/12 05:34:12;;;;;;;18.65;14.40;;;20.80;99.40;;;;;;4249254;27;20396;-55
2023/09/12 05:36:14;;;;;;;15.40;12.55;;;20.90;99.30;;;;;;4249745;27;20039;-54
2023/09/12 05:38:16;;;;;;;18.55;15.27;;;20.90;99.20;;;;;;4248740;27;20104;-54
2023/09/12 05:40:19;;;;;;;21.88;16.80;;;20.90;99.30;;;;;;4248694;27;20570;-55
2023/09/12 05:42:22;;;;;;;26.52;17.80;;;20.80;99.30;;;;;;4249613;27;20460;-53
2023/09/12 05:44:24;;;;;;;22.42;19.10;;;20.80;99.40;;;;;;4249167;27;20059;-54
2023/09/12 05:46:31;;;;;;;19.15;16.58;;;20.80;99.30;;;;;;4249450;27;20130;-55
2023/09/12 05:48:38;;;;;;;24.88;18.83;;;20.80;99.30;;;;;;4248495;27;20131;-55
2023/09/12 05:50:42;;;;;;;22.80;17.20;;;20.80;99.40;;;;;;4249306;27;20066;-59
2023/09/12 05:52:44;;;;;;;22.17;17.90;;;20.80;99.60;;;;;;4249326;27;20043;-54
2023/09/12 05:54:46;;;;;;;23.70;17.63;;;20.70;99.60;;;;;;4248752;27;20039;-57
2023/09/12 05:56:48;;;;;;;27.02;17.98;;;20.70;99.80;;;;;;4230982;28;20043;-55
2023/09/12 05:58:50;;;;;;;22.48;18.15;;;20.60;99.80;;;;;;4247040;27;20054;-55
2023/09/12 06:00:52;;;;;;;24.42;15.35;;;20.70;99.70;;;;;;4248675;27;20043;-52
2023/09/12 06:02:55;;;;;;;19.85;13.20;;;20.70;99.70;;;;;;4249152;27;20379;-54
2023/09/12 06:04:57;;;;;;;17.30;13.05;;;20.70;99.60;;;;;;4248737;27;20422;-58
2023/09/12 06:07:01;;;;;;;30.55;17.10;;;20.80;99.60;;;;;;4249287;27;20043;-54
2023/09/12 06:09:03;;;;;;;19.80;13.27;;;20.80;99.50;;;;;;4248143;27;20088;-54
2023/09/12 06:11:05;;;;;;;19.27;12.45;;;20.80;99.40;;;;;;4249243;27;20042;-54
2023/09/12 06:13:07;;;;;;;21.23;12.73;;;20.90;99.30;;;;;;4249583;27;20043;-55
2023/09/12 06:15:12;;;;;;;18.83;11.60;;;21.00;99.30;;;;;;4231076;28;20040;-54
2023/09/12 06:17:14;;;;;;;15.85;10.95;;;21.00;99.30;;;;;;4237905;27;20044;-54
2023/09/12 06:19:17;;;;;;;17.63;11.32;;;21.00;99.20;;;;;;4247978;27;20039;-55
2023/09/12 06:21:21;;;;;;;15.52;10.38;;;21.00;99.20;;;;;;4230388;28;20046;-54
2023/09/12 06:23:24;;;;;;;18.65;12.00;;;21.00;99.70;;;;;;4241347;27;20050;-54
2023/09/12 06:25:28;;;;;;;14.68;10.55;;;21.00;99.30;;;;;;4248426;27;20092;-55
2023/09/12 06:27:31;;;;;;;13.55;10.60;;;21.00;99.30;;;;;;4248721;27;20088;-54
2023/09/12 06:29:33;;;;;;;15.38;11.32;;;21.00;99.30;;;;;;4247419;27;20122;-54
2023/09/12 06:31:36;;;;;;;15.65;10.98;;;20.90;99.20;;;;;;4248367;27;20088;-54
2023/09/12 06:33:38;;;;;;;18.10;10.98;;;21.00;99.30;;;;;;4248567;27;20053;-53
2023/09/12 06:35:40;;;;;;;16.48;10.55;;;21.00;99.30;;;;;;4248459;27;20154;-55
2023/09/12 06:37:44;;;;;;;17.05;11.50;;;21.00;99.30;;;;;;4247930;27;20051;-54
2023/09/12 06:39:51;;;;;;;27.90;12.27;;;21.00;99.20;;;;;;4247508;27;20488;-54
2023/09/12 06:41:53;;;;;;;26.05;12.88;;;21.10;99.10;;;;;;4248199;27;21166;-53
2023/09/12 06:43:58;;;;;;;29.23;12.63;;;21.20;98.90;;;;;;4248271;27;20047;-54
2023/09/12 06:46:01;;;;;;;23.52;10.93;;;21.10;98.80;;;;;;4248705;27;20126;-54
2023/09/12 06:48:03;;;;;;;17.10;10.45;;;21.20;98.90;;;;;;4248138;27;20059;-55
2023/09/12 06:50:06;;;;;;;18.92;10.75;;;21.20;98.70;;;;;;4230386;28;20108;-53
2023/09/12 06:52:14;;;;;;;27.58;12.32;;;21.30;98.70;;;;;;4239159;27;20096;-54
2023/09/12 06:54:16;;;;;;;45.47;13.75;;;21.20;98.70;;;;;;4248267;27;20092;-56
2023/09/12 06:56:21;;;;;;;41.83;12.68;;;21.30;98.70;;;;;;4248521;27;20056;-55
2023/09/12 06:58:23;;;;;;;20.98;9.10;;;21.30;98.60;;;;;;4247005;27;20054;-55
2023/09/12 07:00:26;;;;;;;17.27;10.65;;;21.30;98.40;;;;;;4247451;27;20062;-54
2023/09/12 07:02:28;;;;;;;16.70;8.65;;;21.40;98.40;;;;;;4247888;27;20035;-54
2023/09/12 07:04:30;;;;;;;15.80;8.65;;;21.40;98.50;;;;;;4247771;27;20066;-55
2023/09/12 07:06:33;;;;;;;11.57;8.82;;;21.40;98.40;;;;;;4247806;27;20130;-55
2023/09/12 07:08:36;;;;;;;17.88;9.18;;;21.40;98.40;;;;;;4246768;27;20065;-54
2023/09/12 07:10:45;;;;;;;15.77;9.57;;;21.30;98.50;;;;;;4247329;27;20066;-54
2023/09/12 07:12:48;;;;;;;11.07;7.50;;;21.40;98.30;;;;;;4247753;27;20137;-55
2023/09/12 07:14:51;;;;;;;11.80;8.30;;;21.40;98.40;;;;;;4247754;27;20039;-54
2023/09/12 07:16:53;;;;;;;19.13;8.95;;;21.30;98.40;;;;;;4247880;27;20126;-54
2023/09/12 07:18:55;;;;;;;14.75;9.52;;;21.40;98.30;;;;;;4246700;27;20493;-56
2023/09/12 07:20:58;;;;;;;21.80;10.20;;;21.40;98.20;;;;;;4247403;27;20477;-55
2023/09/12 07:23:00;;;;;;;16.85;8.88;;;21.40;98.10;;;;;;4247706;27;20039;-54
2023/09/12 07:25:03;;;;;;;14.75;8.98;;;21.40;98.20;;;;;;4247525;27;20454;-54
2023/09/12 07:27:05;;;;;;;14.48;8.95;;;21.40;98.20;;;;;;4229556;28;20051;-54
2023/09/12 07:29:08;;;;;;;11.02;7.57;;;21.40;98.10;;;;;;4246525;27;20069;-60
2023/09/12 07:31:11;;;;;;;11.60;8.23;;;21.40;98.10;;;;;;4247694;27;20054;-56
2023/09/12 07:33:14;;;;;;;15.68;9.23;;;21.30;98.20;;;;;;4247550;27;20469;-54
2023/09/12 07:35:16;;;;;;;17.88;7.80;;;21.30;98.20;;;;;;4247191;27;20404;-54
2023/09/12 07:37:18;;;;;;;11.15;7.88;;;21.20;98.20;;;;;;4247516;27;20138;-54
2023/09/12 07:39:20;;;;;;;11.48;7.70;;;21.30;98.30;;;;;;4246130;27;20043;-54
2023/09/12 07:41:22;;;;;;;15.82;8.23;;;21.20;98.30;;;;;;4247617;27;20066;-55
2023/09/12 07:43:24;;;;;;;13.88;7.88;;;21.30;98.20;;;;;;4247209;27;20051;-54
2023/09/12 07:45:29;;;;;;;13.15;7.18;;;21.40;98.10;;;;;;4247317;27;20047;-55
2023/09/12 07:47:32;;;;;;;20.40;7.78;;;21.40;98.00;;;;;;4247386;27;20051;-55
2023/09/12 07:49:35;;;;;;;15.40;6.90;;;21.40;98.00;;;;;;4245594;27;20170;-54
2023/09/12 07:51:37;;;;;;;15.27;7.32;;;21.50;97.90;;;;;;4247268;27;20043;-54
2023/09/12 07:53:40;;;;;;;20.17;8.70;;;21.50;97.80;;;;;;4247194;27;20063;-53
2023/09/12 07:55:46;;;;;;;22.35;7.50;;;21.60;97.80;;;;;;4247255;27;20519;-54
2023/09/12 07:57:48;;;;;;;14.75;7.65;;;21.60;97.70;;;;;;4247209;27;20050;-54
2023/09/12 07:59:51;;;;;;;13.23;6.45;;;21.60;97.80;;;;;;4245955;27;20054;-57
2023/09/12 08:01:54;;;;;;;34.38;9.07;;;21.60;97.70;;;;;;4247368;27;20058;-52
2023/09/12 08:03:57;;;;;;;11.10;6.65;;;21.60;97.50;;;;;;4228464;28;20419;-52
2023/09/12 08:05:59;;;;;;;16.52;7.70;;;21.70;97.50;;;;;;4246966;27;20082;-52
2023/09/12 08:08:01;;;;;;;14.75;7.65;;;21.70;97.60;;;;;;4247192;27;20043;-53
2023/09/12 08:10:04;;;;;;;13.05;6.25;;;21.70;97.40;;;;;;4246135;27;20096;-51
2023/09/12 08:12:07;;;;;;;12.05;6.43;;;21.70;97.40;;;;;;4247373;27;20334;-52
2023/09/12 08:14:09;;;;;;;10.20;6.43;;;21.80;97.50;;;;;;4247025;27;20049;-54
2023/09/12 08:16:11;;;;;;;15.90;7.20;;;21.70;97.80;;;;;;4246964;27;20461;-54
2023/09/12 08:18:15;;;;;;;14.77;7.25;;;21.70;97.50;;;;;;4246558;27;20136;-55
2023/09/12 08:20:17;;;;;;;13.10;7.57;;;21.80;97.40;;;;;;4245806;28;20054;-54
2023/09/12 08:22:19;;;;;;;19.52;6.93;;;21.80;97.30;;;;;;4246521;27;20054;-54
2023/09/12 08:24:21;;;;;;;8.90;6.10;;;21.80;97.50;;;;;;4246807;28;20050;-54
2023/09/12 08:26:23;;;;;;;10.88;6.07;;;21.80;97.40;;;;;;4245231;28;20126;-54
2023/09/12 08:28:26;;;;;;;10.48;6.30;;;21.80;97.40;;;;;;4247183;28;20061;-54
2023/09/12 08:30:31;;;;;;;10.40;7.07;;;21.70;97.50;;;;;;4204175;28;20082;-55
2023/09/12 08:32:34;;;;;;;11.63;6.80;;;21.70;97.50;;;;;;4238655;28;20043;-55
2023/09/12 08:34:38;;;;;;;10.85;6.43;;;21.60;97.50;;;;;;4242492;27;20043;-56
2023/09/12 08:36:40;;;;;;;17.60;6.78;;;21.60;97.60;;;;;;4243105;28;20057;-53
2023/09/12 08:38:42;;;;;;;51.30;10.68;;;21.70;97.50;;;;;;4245872;28;20070;-54
2023/09/12 08:40:49;;;;;;;28.90;8.65;;;21.70;97.40;;;;;;4236084;28;20438;-54
2023/09/12 08:42:52;;;;;;;25.42;8.38;;;21.80;97.40;;;;;;4245991;28;20070;-54
2023/09/12 08:44:54;;;;;;;19.10;7.20;;;21.80;97.40;;;;;;4245946;28;20043;-61
2023/09/12 08:46:57;;;;;;;20.98;7.18;;;21.90;97.30;;;;;;4246397;28;20425;-54
2023/09/12 08:48:59;;;;;;;21.90;6.82;;;21.80;97.30;;;;;;4226844;28;20064;-55
2023/09/12 08:51:04;;;;;;;14.93;6.55;;;21.90;97.20;;;;;;4246268;28;20039;-58
2023/09/12 08:53:06;;;;;;;9.18;5.07;;;21.90;97.10;;;;;;4224162;28;20052;-53
2023/09/12 08:55:10;;;;;;;8.07;5.10;;;21.80;97.30;;;;;;4229569;28;20048;-54
2023/09/12 08:57:13;;;;;;;8.55;5.57;;;21.90;97.30;;;;;;4244997;28;20400;-54
2023/09/12 08:59:16;;;;;;;9.85;5.32;;;21.90;97.30;;;;;;4245313;28;20047;-55
2023/09/12 09:01:19;;;;;;;9.45;5.97;;;22.00;97.10;;;;;;4240122;28;20035;-54
2023/09/12 09:03:23;;;;;;;8.73;5.40;;;22.00;97.10;;;;;;4246529;28;20441;-55
2023/09/12 09:05:26;;;;;;;9.73;6.27;;;22.00;97.10;;;;;;4246890;28;20477;-54
2023/09/12 09:07:33;;;;;;;7.67;5.50;;;21.90;97.10;;;;;;4246276;28;20436;-56
2023/09/12 09:09:35;;;;;;;10.50;5.60;;;21.90;97.20;;;;;;4245272;28;20053;-56
2023/09/12 09:11:37;;;;;;;8.52;5.13;;;21.90;97.10;;;;;;4246118;27;20546;-54
2023/09/12 09:13:39;;;;;;;15.15;5.93;;;21.90;97.10;;;;;;4246378;28;20122;-54
2023/09/12 09:15:42;;;;;;;11.40;6.10;;;21.90;97.10;;;;;;4246779;28;20546;-53
2023/09/12 09:17:44;;;;;;;8.00;4.90;;;22.00;96.90;;;;;;4237867;28;20051;-53
2023/09/12 09:19:48;;;;;;;14.68;6.03;;;21.90;97.00;;;;;;4243090;28;20051;-54
2023/09/12 09:22:05;;;;;;;9.52;5.20;;;21.90;97.00;;;;;;4245949;28;20070;-54
2023/09/12 09:24:13;;;;;;;14.88;6.13;;;21.80;96.90;;;;;;4246503;28;20075;-54
2023/09/12 09:26:15;;;;;;;10.75;5.68;;;21.80;97.00;;;;;;4246629;28;20043;-54
2023/09/12 09:28:19;;;;;;;9.77;5.40;;;21.80;97.10;;;;;;4245821;28;20039;-54
2023/09/12 09:30:40;;;;;;;9.13;4.85;;;21.70;97.10;;;;;;4234811;28;20048;-54
2023/09/12 09:32:44;;;;;;;12.10;4.90;;;21.70;97.20;;;;;;4238824;27;20468;-54
2023/09/12 09:34:53;;;;;;;12.15;5.10;;;21.70;97.30;;;;;;4240543;27;20471;-55
2023/09/12 09:37:04;;;;;;;12.70;5.68;;;21.70;97.30;;;;;;4238987;27;20146;-54
2023/09/12 09:39:08;;;;;;;20.80;6.30;;;21.70;97.30;;;;;;4248363;27;20096;-53
2023/09/12 09:41:10;;;;;;;14.30;5.60;;;21.70;97.30;;;;;;4249617;27;20078;-54
2023/09/12 09:43:14;;;;;;;12.52;5.38;;;21.60;97.30;;;;;;4249085;27;20039;-53
2023/09/12 09:45:17;;;;;;;10.80;4.88;;;21.70;97.40;;;;;;4248967;27;20073;-55
2023/09/12 09:47:20;;;;;;;10.23;6.00;;;21.60;97.50;;;;;;4249133;27;20137;-58
2023/09/12 09:49:22;;;;;;;14.57;5.68;;;21.60;97.90;;;;;;4247918;27;20138;-53
2023/09/12 09:51:25;;;;;;;13.63;5.57;;;21.60;98.00;;;;;;4243921;27;20039;-54
2023/09/12 09:53:27;;;;;;;10.35;5.80;;;21.50;98.20;;;;;;4242234;27;20049;-54
2023/09/12 09:55:32;;;;;;;13.90;7.35;;;21.50;98.60;;;;;;4249187;27;20035;-53
2023/09/12 09:57:37;;;;;;;20.13;6.90;;;21.40;99.30;;;;;;4249068;27;20047;-53
2023/09/12 09:59:40;;;;;;;16.83;6.53;;;21.30;99.90;;;;;;4243568;27;20096;-54
2023/09/12 10:01:44;;;;;;;16.05;6.70;;;21.20;99.90;;;;;;4247807;27;20122;-53
2023/09/12 10:03:50;;;;;;;14.23;6.55;;;21.10;99.90;;;;;;4249074;27;20039;-53
2023/09/12 10:05:55;;;;;;;13.85;7.00;;;21.10;99.90;;;;;;4245076;27;20633;-54
2023/09/12 10:08:00;;;;;;;17.80;8.35;;;21.10;99.90;;;;;;4248399;27;20405;-57
2023/09/12 10:10:04;;;;;;;19.70;7.63;;;20.90;99.90;;;;;;4244277;27;20050;-57
2023/09/12 10:12:08;;;;;;;17.77;7.70;;;20.90;99.90;;;;;;4248670;27;20108;-54
2023/09/12 10:14:14;;;;;;;18.13;8.77;;;20.80;99.90;;;;;;4246998;27;20074;-54
2023/09/12 10:16:16;;;;;;;24.88;11.00;;;20.80;99.90;;;;;;4248034;27;20463;-54
2023/09/12 10:18:24;;;;;;;22.15;10.35;;;20.60;99.90;;;;;;4237338;27;20068;-54
2023/09/12 10:20:35;;;;;;;28.40;12.15;;;20.50;99.90;;;;;;4244884;27;20043;-54
2023/09/12 10:22:43;;;;;;;22.00;11.50;;;20.50;99.90;;;;;;4248395;27;20377;-54
2023/09/12 10:24:46;;;;;;;21.33;12.07;;;20.50;99.90;;;;;;4248258;27;20049;-54
2023/09/12 10:26:50;;;;;;;19.73;10.13;;;20.50;99.90;;;;;;4247930;27;20062;-54
2023/09/12 10:28:55;;;;;;;22.63;11.23;;;20.50;99.90;;;;;;4242996;27;20490;-53
2023/09/12 10:30:59;;;;;;;19.13;10.63;;;20.50;99.90;;;;;;4235822;27;20459;-54
2023/09/12 10:33:05;;;;;;;25.42;13.18;;;20.40;99.90;;;;;;4248684;27;20047;-54